sensor_id;sensor_type;location;lat;lon;timestamp;pressure;altitude;pressure_sealevel;temperature;humidity
34235;BME280;20500;49.856;20.290;2024-03-25T00:02:56;97595.93;;;1.49;73.05
34235;BME280;20500;49.856;20.290;2024-03-25T00:06:01;97597.02;;;1.49;72.92
34235;BME280;20500;49.856;20.290;2024-03-25T00:09:06;97596.99;;;1.47;72.86
34235;BME280;20500;49.856;20.290;2024-03-25T00:12:17;97598.63;;;1.45;72.82
34235;BME280;20500;49.856;20.290;2024-03-25T00:15:22;97596.45;;;1.42;72.80
34235;BME280;20500;49.856;20.290;2024-03-25T00:18:28;97597.53;;;1.40;72.80
34235;BME280;20500;49.856;20.290;2024-03-25T00:21:33;97594.77;;;1.37;72.87
34235;BME280;20500;49.856;20.290;2024-03-25T00:24:38;97596.61;;;1.35;72.82
34235;BME280;20500;49.856;20.290;2024-03-25T00:27:42;97591.30;;;1.33;72.91
34235;BME280;20500;49.856;20.290;2024-03-25T00:30:47;97586.90;;;1.26;72.86
34235;BME280;20500;49.856;20.290;2024-03-25T00:33:53;97585.65;;;1.17;73.00
34235;BME280;20500;49.856;20.290;2024-03-25T00:36:58;97585.88;;;1.16;73.13
34235;BME280;20500;49.856;20.290;2024-03-25T00:40:04;97583.02;;;1.18;73.23
34235;BME280;20500;49.856;20.290;2024-03-25T00:43:11;97584.73;;;1.19;73.14
34235;BME280;20500;49.856;20.290;2024-03-25T00:46:16;97580.59;;;1.16;73.09
34235;BME280;20500;49.856;20.290;2024-03-25T00:49:21;97581.02;;;1.01;73.00
34235;BME280;20500;49.856;20.290;2024-03-25T00:52:26;97582.48;;;1.01;73.25
34235;BME280;20500;49.856;20.290;2024-03-25T00:55:32;97587.45;;;1.03;73.29
34235;BME280;20500;49.856;20.290;2024-03-25T00:58:37;97590.17;;;0.98;73.25
34235;BME280;20500;49.856;20.290;2024-03-25T01:01:42;97593.09;;;0.83;73.02
34235;BME280;20500;49.856;20.290;2024-03-25T01:04:46;97594.79;;;0.68;73.17
34235;BME280;20500;49.856;20.290;2024-03-25T01:07:51;97588.23;;;0.62;73.27
34235;BME280;20500;49.856;20.290;2024-03-25T01:10:56;97586.20;;;0.54;73.29
34235;BME280;20500;49.856;20.290;2024-03-25T01:14:02;97586.55;;;0.56;73.44
34235;BME280;20500;49.856;20.290;2024-03-25T01:17:07;97583.95;;;0.57;73.56
34235;BME280;20500;49.856;20.290;2024-03-25T01:20:12;97584.04;;;0.60;73.61
34235;BME280;20500;49.856;20.290;2024-03-25T01:23:19;97578.73;;;0.63;73.59
34235;BME280;20500;49.856;20.290;2024-03-25T01:26:24;97579.21;;;0.62;73.72
34235;BME280;20500;49.856;20.290;2024-03-25T01:29:29;97575.75;;;0.61;73.69
34235;BME280;20500;49.856;20.290;2024-03-25T01:32:34;97574.70;;;0.64;73.73
34235;BME280;20500;49.856;20.290;2024-03-25T01:35:40;97578.88;;;0.67;73.94
34235;BME280;20500;49.856;20.290;2024-03-25T01:38:45;97585.29;;;0.70;73.86
34235;BME280;20500;49.856;20.290;2024-03-25T01:41:50;97585.16;;;0.66;73.81
34235;BME280;20500;49.856;20.290;2024-03-25T01:44:55;97584.00;;;0.64;73.87
34235;BME280;20500;49.856;20.290;2024-03-25T01:48:01;97585.55;;;0.61;73.94
34235;BME280;20500;49.856;20.290;2024-03-25T01:51:07;97585.91;;;0.59;73.98
34235;BME280;20500;49.856;20.290;2024-03-25T01:54:12;97587.48;;;0.61;74.18
34235;BME280;20500;49.856;20.290;2024-03-25T01:57:20;97589.11;;;0.64;74.16
34235;BME280;20500;49.856;20.290;2024-03-25T02:00:27;97585.61;;;0.67;74.16
34235;BME280;20500;49.856;20.290;2024-03-25T02:03:33;97580.88;;;0.68;74.10
34235;BME280;20500;49.856;20.290;2024-03-25T02:06:41;97581.77;;;0.68;74.45
34235;BME280;20500;49.856;20.290;2024-03-25T02:09:48;97576.52;;;0.70;74.23
34235;BME280;20500;49.856;20.290;2024-03-25T02:12:53;97572.48;;;0.73;74.38
34235;BME280;20500;49.856;20.290;2024-03-25T02:15:59;97572.02;;;0.78;74.33
34235;BME280;20500;49.856;20.290;2024-03-25T02:19:04;97568.02;;;0.80;74.34
34235;BME280;20500;49.856;20.290;2024-03-25T02:22:09;97570.08;;;0.81;74.37
34235;BME280;20500;49.856;20.290;2024-03-25T02:25:15;97574.36;;;0.83;74.30
34235;BME280;20500;49.856;20.290;2024-03-25T02:28:21;97577.25;;;0.83;74.35
34235;BME280;20500;49.856;20.290;2024-03-25T02:31:26;97575.13;;;0.77;74.57
34235;BME280;20500;49.856;20.290;2024-03-25T02:34:31;97574.49;;;0.78;74.56
34235;BME280;20500;49.856;20.290;2024-03-25T02:37:36;97572.32;;;0.80;74.60
34235;BME280;20500;49.856;20.290;2024-03-25T02:40:42;97568.86;;;0.82;74.55
34235;BME280;20500;49.856;20.290;2024-03-25T02:43:47;97565.73;;;0.82;74.63
34235;BME280;20500;49.856;20.290;2024-03-25T02:46:53;97564.92;;;0.81;74.73
34235;BME280;20500;49.856;20.290;2024-03-25T02:49:59;97563.83;;;0.81;74.67
34235;BME280;20500;49.856;20.290;2024-03-25T02:53:04;97559.54;;;0.81;74.74
34235;BME280;20500;49.856;20.290;2024-03-25T02:56:10;97559.14;;;0.80;74.79
34235;BME280;20500;49.856;20.290;2024-03-25T02:59:15;97560.48;;;0.79;74.84
34235;BME280;20500;49.856;20.290;2024-03-25T03:02:20;97559.23;;;0.73;74.66
34235;BME280;20500;49.856;20.290;2024-03-25T03:05:25;97555.23;;;0.75;74.76
34235;BME280;20500;49.856;20.290;2024-03-25T03:08:30;97555.60;;;0.75;74.87
34235;BME280;20500;49.856;20.290;2024-03-25T03:11:35;97555.66;;;0.74;74.81
34235;BME280;20500;49.856;20.290;2024-03-25T03:14:40;97551.13;;;0.71;74.85
34235;BME280;20500;49.856;20.290;2024-03-25T03:17:45;97550.04;;;0.71;74.97
34235;BME280;20500;49.856;20.290;2024-03-25T03:20:50;97551.02;;;0.72;75.10
34235;BME280;20500;49.856;20.290;2024-03-25T03:23:55;97555.59;;;0.76;75.18
34235;BME280;20500;49.856;20.290;2024-03-25T03:27:00;97557.97;;;0.79;75.06
34235;BME280;20500;49.856;20.290;2024-03-25T03:30:07;97556.99;;;0.78;75.10
34235;BME280;20500;49.856;20.290;2024-03-25T03:33:13;97561.27;;;0.80;75.08
34235;BME280;20500;49.856;20.290;2024-03-25T03:36:19;97567.16;;;0.80;75.07
34235;BME280;20500;49.856;20.290;2024-03-25T03:39:24;97563.82;;;0.78;75.04
34235;BME280;20500;49.856;20.290;2024-03-25T03:42:29;97567.77;;;0.78;75.23
34235;BME280;20500;49.856;20.290;2024-03-25T03:45:35;97575.29;;;0.81;75.24
34235;BME280;20500;49.856;20.290;2024-03-25T03:48:40;97582.45;;;0.79;75.21
34235;BME280;20500;49.856;20.290;2024-03-25T03:51:45;97582.50;;;0.68;75.08
34235;BME280;20500;49.856;20.290;2024-03-25T03:54:50;97579.29;;;0.54;75.13
34235;BME280;20500;49.856;20.290;2024-03-25T03:57:55;97582.27;;;0.53;75.39
34235;BME280;20500;49.856;20.290;2024-03-25T04:01:00;97582.61;;;0.56;75.53
34235;BME280;20500;49.856;20.290;2024-03-25T04:04:08;97580.10;;;0.57;75.29
34235;BME280;20500;49.856;20.290;2024-03-25T04:07:13;97582.94;;;0.57;75.30
34235;BME280;20500;49.856;20.290;2024-03-25T04:10:19;97583.97;;;0.59;75.42
34235;BME280;20500;49.856;20.290;2024-03-25T04:13:24;97585.31;;;0.60;75.33
34235;BME280;20500;49.856;20.290;2024-03-25T04:16:29;97582.63;;;0.60;75.34
34235;BME280;20500;49.856;20.290;2024-03-25T04:19:34;97577.69;;;0.59;75.47
34235;BME280;20500;49.856;20.290;2024-03-25T04:22:42;97576.64;;;0.59;75.59
34235;BME280;20500;49.856;20.290;2024-03-25T04:25:47;97577.05;;;0.60;75.44
34235;BME280;20500;49.856;20.290;2024-03-25T04:28:52;97580.12;;;0.60;75.63
34235;BME280;20500;49.856;20.290;2024-03-25T04:31:57;97583.41;;;0.59;75.39
34235;BME280;20500;49.856;20.290;2024-03-25T04:35:03;97583.23;;;0.55;75.48
34235;BME280;20500;49.856;20.290;2024-03-25T04:38:10;97582.56;;;0.53;75.44
34235;BME280;20500;49.856;20.290;2024-03-25T04:41:15;97581.67;;;0.51;75.47
34235;BME280;20500;49.856;20.290;2024-03-25T04:44:20;97581.67;;;0.47;75.63
34235;BME280;20500;49.856;20.290;2024-03-25T04:47:25;97584.20;;;0.47;75.65
34235;BME280;20500;49.856;20.290;2024-03-25T04:50:31;97586.54;;;0.47;75.56
34235;BME280;20500;49.856;20.290;2024-03-25T04:53:36;97586.17;;;0.44;75.68
34235;BME280;20500;49.856;20.290;2024-03-25T04:56:41;97589.72;;;0.44;75.66
34235;BME280;20500;49.856;20.290;2024-03-25T04:59:46;97585.15;;;0.43;75.60
34235;BME280;20500;49.856;20.290;2024-03-25T05:02:51;97579.36;;;0.35;75.71
34235;BME280;20500;49.856;20.290;2024-03-25T05:05:56;97581.21;;;0.33;75.76
34235;BME280;20500;49.856;20.290;2024-03-25T05:09:02;97585.03;;;0.32;75.67
34235;BME280;20500;49.856;20.290;2024-03-25T05:12:08;97585.36;;;0.33;75.82
34235;BME280;20500;49.856;20.290;2024-03-25T05:15:13;97587.11;;;0.29;75.95
34235;BME280;20500;49.856;20.290;2024-03-25T05:18:18;97590.15;;;0.31;75.92
34235;BME280;20500;49.856;20.290;2024-03-25T05:21:23;97589.35;;;0.35;76.20
34235;BME280;20500;49.856;20.290;2024-03-25T05:24:28;97590.88;;;0.42;76.18
34235;BME280;20500;49.856;20.290;2024-03-25T05:27:33;97594.67;;;0.45;75.91
34235;BME280;20500;49.856;20.290;2024-03-25T05:30:38;97592.30;;;0.45;76.02
34235;BME280;20500;49.856;20.290;2024-03-25T05:33:44;97592.95;;;0.46;76.25
34235;BME280;20500;49.856;20.290;2024-03-25T05:36:49;97590.55;;;0.50;76.20
34235;BME280;20500;49.856;20.290;2024-03-25T05:39:54;97591.52;;;0.58;76.48
34235;BME280;20500;49.856;20.290;2024-03-25T05:42:59;97595.06;;;0.69;76.79
34235;BME280;20500;49.856;20.290;2024-03-25T05:46:04;97595.20;;;0.83;77.01
34235;BME280;20500;49.856;20.290;2024-03-25T05:49:09;97593.23;;;1.01;77.35
34235;BME280;20500;49.856;20.290;2024-03-25T05:52:14;97587.74;;;1.21;77.50
34235;BME280;20500;49.856;20.290;2024-03-25T05:55:19;97589.20;;;1.41;77.59
34235;BME280;20500;49.856;20.290;2024-03-25T05:58:24;97592.95;;;1.62;77.65
34235;BME280;20500;49.856;20.290;2024-03-25T06:01:29;97593.45;;;1.80;77.65
34235;BME280;20500;49.856;20.290;2024-03-25T06:04:34;97593.00;;;1.97;77.66
34235;BME280;20500;49.856;20.290;2024-03-25T06:07:39;97601.45;;;2.11;77.70
34235;BME280;20500;49.856;20.290;2024-03-25T06:10:44;97600.70;;;2.23;77.66
34235;BME280;20500;49.856;20.290;2024-03-25T06:13:49;97601.48;;;2.35;77.81
34235;BME280;20500;49.856;20.290;2024-03-25T06:16:54;97601.67;;;2.49;77.79
34235;BME280;20500;49.856;20.290;2024-03-25T06:19:59;97600.30;;;2.61;77.88
34235;BME280;20500;49.856;20.290;2024-03-25T06:23:05;97604.83;;;2.75;77.62
34235;BME280;20500;49.856;20.290;2024-03-25T06:26:10;97606.02;;;2.90;77.74
34235;BME280;20500;49.856;20.290;2024-03-25T06:29:15;97607.45;;;3.09;77.64
34235;BME280;20500;49.856;20.290;2024-03-25T06:32:20;97611.52;;;3.26;77.70
34235;BME280;20500;49.856;20.290;2024-03-25T06:35:45;97621.00;;;3.46;77.52
34235;BME280;20500;49.856;20.290;2024-03-25T06:38:49;97626.23;;;3.61;77.36
34235;BME280;20500;49.856;20.290;2024-03-25T06:41:55;97631.37;;;3.75;77.31
34235;BME280;20500;49.856;20.290;2024-03-25T06:45:00;97635.16;;;3.85;77.39
34235;BME280;20500;49.856;20.290;2024-03-25T06:48:06;97638.64;;;3.96;77.29
34235;BME280;20500;49.856;20.290;2024-03-25T06:51:11;97637.83;;;4.06;77.31
34235;BME280;20500;49.856;20.290;2024-03-25T06:54:16;97640.35;;;4.18;77.35
34235;BME280;20500;49.856;20.290;2024-03-25T06:57:21;97638.59;;;4.30;77.21
34235;BME280;20500;49.856;20.290;2024-03-25T07:00:26;97640.05;;;4.46;77.30
34235;BME280;20500;49.856;20.290;2024-03-25T07:03:35;97642.06;;;4.64;77.28
34235;BME280;20500;49.856;20.290;2024-03-25T07:06:40;97637.22;;;4.82;77.32
34235;BME280;20500;49.856;20.290;2024-03-25T07:09:45;97636.83;;;4.98;77.10
34235;BME280;20500;49.856;20.290;2024-03-25T07:12:50;97638.28;;;5.08;76.94
34235;BME280;20500;49.856;20.290;2024-03-25T07:15:55;97641.19;;;5.15;76.82
34235;BME280;20500;49.856;20.290;2024-03-25T07:19:00;97644.05;;;5.18;76.58
34235;BME280;20500;49.856;20.290;2024-03-25T07:22:05;97647.96;;;5.19;76.44
34235;BME280;20500;49.856;20.290;2024-03-25T07:25:10;97650.42;;;5.18;76.27
34235;BME280;20500;49.856;20.290;2024-03-25T07:28:15;97654.54;;;5.15;76.06
34235;BME280;20500;49.856;20.290;2024-03-25T07:31:20;97655.09;;;5.12;76.14
34235;BME280;20500;49.856;20.290;2024-03-25T07:34:26;97653.52;;;5.11;76.14
34235;BME280;20500;49.856;20.290;2024-03-25T07:37:31;97656.94;;;5.15;76.16
34235;BME280;20500;49.856;20.290;2024-03-25T07:40:36;97664.18;;;5.19;76.16
34235;BME280;20500;49.856;20.290;2024-03-25T07:43:41;97669.48;;;5.23;76.16
34235;BME280;20500;49.856;20.290;2024-03-25T07:46:46;97665.83;;;5.27;76.10
34235;BME280;20500;49.856;20.290;2024-03-25T07:49:51;97667.83;;;5.30;76.22
34235;BME280;20500;49.856;20.290;2024-03-25T07:52:56;97668.27;;;5.35;76.36
34235;BME280;20500;49.856;20.290;2024-03-25T07:56:02;97670.84;;;5.43;76.18
34235;BME280;20500;49.856;20.290;2024-03-25T07:59:08;97672.71;;;5.48;76.03
34235;BME280;20500;49.856;20.290;2024-03-25T08:02:13;97672.60;;;5.55;76.09
34235;BME280;20500;49.856;20.290;2024-03-25T08:05:18;97672.59;;;5.61;76.02
34235;BME280;20500;49.856;20.290;2024-03-25T08:08:26;97675.04;;;5.68;75.89
34235;BME280;20500;49.856;20.290;2024-03-25T08:11:31;97674.95;;;5.73;75.80
34235;BME280;20500;49.856;20.290;2024-03-25T08:14:36;97676.02;;;5.77;75.86
34235;BME280;20500;49.856;20.290;2024-03-25T08:17:41;97677.49;;;5.83;75.82
34235;BME280;20500;49.856;20.290;2024-03-25T08:20:46;97676.58;;;5.88;75.67
34235;BME280;20500;49.856;20.290;2024-03-25T08:23:51;97680.59;;;5.92;75.57
34235;BME280;20500;49.856;20.290;2024-03-25T08:26:56;97686.09;;;5.93;75.58
34235;BME280;20500;49.856;20.290;2024-03-25T08:30:01;97685.56;;;5.96;75.50
34235;BME280;20500;49.856;20.290;2024-03-25T08:33:06;97685.58;;;5.97;75.49
34235;BME280;20500;49.856;20.290;2024-03-25T08:36:11;97690.16;;;6.01;75.37
34235;BME280;20500;49.856;20.290;2024-03-25T08:39:16;97686.65;;;6.09;75.30
34235;BME280;20500;49.856;20.290;2024-03-25T08:42:22;97690.81;;;6.22;75.43
34235;BME280;20500;49.856;20.290;2024-03-25T08:45:27;97691.15;;;6.39;75.59
34235;BME280;20500;49.856;20.290;2024-03-25T08:48:32;97692.92;;;6.60;75.47
34235;BME280;20500;49.856;20.290;2024-03-25T08:51:37;97693.14;;;6.74;75.23
34235;BME280;20500;49.856;20.290;2024-03-25T08:54:42;97696.11;;;6.80;75.01
34235;BME280;20500;49.856;20.290;2024-03-25T08:57:48;97701.20;;;6.83;74.80
34235;BME280;20500;49.856;20.290;2024-03-25T09:00:53;97704.36;;;6.81;74.61
34235;BME280;20500;49.856;20.290;2024-03-25T09:03:58;97706.51;;;6.75;74.73
34235;BME280;20500;49.856;20.290;2024-03-25T09:07:03;97705.97;;;6.75;74.91
34235;BME280;20500;49.856;20.290;2024-03-25T09:10:10;97702.86;;;6.84;74.95
34235;BME280;20500;49.856;20.290;2024-03-25T09:13:32;97701.06;;;6.93;74.65
34235;BME280;20500;49.856;20.290;2024-03-25T09:16:37;97700.33;;;6.97;74.63
34235;BME280;20500;49.856;20.290;2024-03-25T09:19:42;97700.92;;;7.07;74.72
34235;BME280;20500;49.856;20.290;2024-03-25T09:22:47;97703.91;;;7.19;74.71
34235;BME280;20500;49.856;20.290;2024-03-25T09:25:53;97702.99;;;7.33;74.68
34235;BME280;20500;49.856;20.290;2024-03-25T09:28:58;97702.91;;;7.58;74.92
34235;BME280;20500;49.856;20.290;2024-03-25T09:32:05;97698.34;;;7.91;74.85
34235;BME280;20500;49.856;20.290;2024-03-25T09:35:11;97705.83;;;8.13;74.59
34235;BME280;20500;49.856;20.290;2024-03-25T09:38:16;97702.60;;;8.34;74.48
34235;BME280;20500;49.856;20.290;2024-03-25T09:41:21;97706.61;;;8.48;74.07
34235;BME280;20500;49.856;20.290;2024-03-25T09:44:27;97708.90;;;8.49;73.69
34235;BME280;20500;49.856;20.290;2024-03-25T09:47:34;97709.30;;;8.46;73.41
34235;BME280;20500;49.856;20.290;2024-03-25T09:50:40;97703.33;;;8.43;73.37
34235;BME280;20500;49.856;20.290;2024-03-25T09:53:47;97704.92;;;8.45;73.57
34235;BME280;20500;49.856;20.290;2024-03-25T09:56:53;97706.32;;;8.49;73.21
34235;BME280;20500;49.856;20.290;2024-03-25T09:59:59;97707.91;;;8.50;72.99
34235;BME280;20500;49.856;20.290;2024-03-25T10:03:05;97710.88;;;8.52;72.79
34235;BME280;20500;49.856;20.290;2024-03-25T10:06:09;97719.20;;;8.48;72.78
34235;BME280;20500;49.856;20.290;2024-03-25T10:09:20;97724.65;;;8.38;72.73
34235;BME280;20500;49.856;20.290;2024-03-25T10:12:26;97727.89;;;8.29;72.48
34235;BME280;20500;49.856;20.290;2024-03-25T10:15:32;97728.79;;;8.26;72.46
34235;BME280;20500;49.856;20.290;2024-03-25T10:18:38;97731.57;;;8.24;72.37
34235;BME280;20500;49.856;20.290;2024-03-25T10:21:45;97728.42;;;8.23;72.32
34235;BME280;20500;49.856;20.290;2024-03-25T10:24:51;97733.67;;;8.27;72.22
34235;BME280;20500;49.856;20.290;2024-03-25T10:27:57;97738.37;;;8.33;72.27
34235;BME280;20500;49.856;20.290;2024-03-25T10:31:06;97740.89;;;8.33;72.21
34235;BME280;20500;49.856;20.290;2024-03-25T10:34:12;97748.31;;;8.27;71.95
34235;BME280;20500;49.856;20.290;2024-03-25T10:37:19;97751.84;;;8.11;71.91
34235;BME280;20500;49.856;20.290;2024-03-25T10:40:29;97746.84;;;8.00;72.09
34235;BME280;20500;49.856;20.290;2024-03-25T10:43:35;97742.27;;;8.03;72.39
34235;BME280;20500;49.856;20.290;2024-03-25T10:46:41;97740.99;;;8.17;72.53
34235;BME280;20500;49.856;20.290;2024-03-25T10:49:50;97742.70;;;8.23;72.29
34235;BME280;20500;49.856;20.290;2024-03-25T10:52:58;97742.48;;;8.21;72.14
34235;BME280;20500;49.856;20.290;2024-03-25T10:56:06;97735.70;;;8.20;72.13
34235;BME280;20500;49.856;20.290;2024-03-25T10:59:14;97733.38;;;8.34;72.37
34235;BME280;20500;49.856;20.290;2024-03-25T11:02:20;97738.56;;;8.59;72.25
34235;BME280;20500;49.856;20.290;2024-03-25T11:05:26;97742.02;;;8.79;72.17
34235;BME280;20500;49.856;20.290;2024-03-25T11:08:33;97741.39;;;8.87;71.70
34235;BME280;20500;49.856;20.290;2024-03-25T11:11:39;97739.53;;;8.94;71.76
34235;BME280;20500;49.856;20.290;2024-03-25T11:14:45;97739.80;;;9.01;71.55
34235;BME280;20500;49.856;20.290;2024-03-25T11:17:51;97736.72;;;9.07;71.58
34235;BME280;20500;49.856;20.290;2024-03-25T11:21:04;97734.05;;;9.08;71.37
34235;BME280;20500;49.856;20.290;2024-03-25T11:24:11;97732.77;;;9.05;71.09
34235;BME280;20500;49.856;20.290;2024-03-25T11:27:25;97723.73;;;9.02;71.00
34235;BME280;20500;49.856;20.290;2024-03-25T11:30:32;97714.25;;;9.22;71.42
34235;BME280;20500;49.856;20.290;2024-03-25T11:33:39;97707.66;;;9.51;71.31
34235;BME280;20500;49.856;20.290;2024-03-25T11:36:45;97703.98;;;9.78;70.99
34235;BME280;20500;49.856;20.290;2024-03-25T11:40:02;97703.63;;;9.93;70.70
34235;BME280;20500;49.856;20.290;2024-03-25T11:43:09;97700.65;;;10.07;70.57
34235;BME280;20500;49.856;20.290;2024-03-25T11:46:20;97701.06;;;10.33;70.46
34235;BME280;20500;49.856;20.290;2024-03-25T11:49:26;97704.52;;;10.52;70.21
34235;BME280;20500;49.856;20.290;2024-03-25T11:52:35;97699.45;;;10.78;70.24
34235;BME280;20500;49.856;20.290;2024-03-25T11:55:41;97701.69;;;11.07;70.20
34235;BME280;20500;49.856;20.290;2024-03-25T11:58:51;97713.52;;;11.18;69.52
34235;BME280;20500;49.856;20.290;2024-03-25T12:01:57;97763.43;;;10.97;68.86
34235;BME280;20500;49.856;20.290;2024-03-25T12:05:03;97797.95;;;10.35;68.26
34235;BME280;20500;49.856;20.290;2024-03-25T12:08:10;97806.00;;;9.54;68.15
34235;BME280;20500;49.856;20.290;2024-03-25T12:11:17;97808.48;;;8.87;68.34
34235;BME280;20500;49.856;20.290;2024-03-25T12:14:23;97810.83;;;8.33;68.35
34235;BME280;20500;49.856;20.290;2024-03-25T12:17:31;97805.63;;;7.89;68.65
34235;BME280;20500;49.856;20.290;2024-03-25T12:20:38;97806.48;;;7.63;68.68
34235;BME280;20500;49.856;20.290;2024-03-25T12:23:45;97809.20;;;7.38;68.76
34235;BME280;20500;49.856;20.290;2024-03-25T12:26:51;97811.89;;;7.17;68.74
34235;BME280;20500;49.856;20.290;2024-03-25T12:30:01;97810.35;;;6.99;68.81
34235;BME280;20500;49.856;20.290;2024-03-25T12:33:08;97801.08;;;6.79;68.67
34235;BME280;20500;49.856;20.290;2024-03-25T12:36:14;97796.64;;;6.67;68.91
34235;BME280;20500;49.856;20.290;2024-03-25T12:39:20;97795.52;;;6.57;68.87
34235;BME280;20500;49.856;20.290;2024-03-25T12:42:26;97794.95;;;6.48;68.94
34235;BME280;20500;49.856;20.290;2024-03-25T12:45:32;97793.55;;;6.43;69.15
34235;BME280;20500;49.856;20.290;2024-03-25T12:48:38;97792.86;;;6.50;69.30
34235;BME280;20500;49.856;20.290;2024-03-25T12:51:45;97792.80;;;6.63;69.43
34235;BME280;20500;49.856;20.290;2024-03-25T12:54:51;97792.93;;;6.79;69.72
34235;BME280;20500;49.856;20.290;2024-03-25T12:57:57;97790.06;;;7.09;69.97
34235;BME280;20500;49.856;20.290;2024-03-25T13:01:03;97789.96;;;7.43;70.00
34235;BME280;20500;49.856;20.290;2024-03-25T13:04:08;97789.36;;;7.72;70.19
34235;BME280;20500;49.856;20.290;2024-03-25T13:07:14;97789.39;;;8.03;70.17
34235;BME280;20500;49.856;20.290;2024-03-25T13:10:20;97786.67;;;8.20;70.20
34235;BME280;20500;49.856;20.290;2024-03-25T13:13:26;97785.55;;;8.44;70.42
34235;BME280;20500;49.856;20.290;2024-03-25T13:16:31;97785.75;;;8.73;70.65
34235;BME280;20500;49.856;20.290;2024-03-25T13:19:37;97791.10;;;8.94;70.42
34235;BME280;20500;49.856;20.290;2024-03-25T13:22:43;97795.30;;;9.11;70.43
34235;BME280;20500;49.856;20.290;2024-03-25T13:25:50;97793.57;;;9.21;70.31
34235;BME280;20500;49.856;20.290;2024-03-25T13:28:55;97793.15;;;9.22;70.05
34235;BME280;20500;49.856;20.290;2024-03-25T13:32:01;97796.69;;;9.04;69.75
34235;BME280;20500;49.856;20.290;2024-03-25T13:35:09;97796.77;;;8.91;70.04
34235;BME280;20500;49.856;20.290;2024-03-25T13:38:15;97795.08;;;8.78;69.85
34235;BME280;20500;49.856;20.290;2024-03-25T13:41:25;97795.55;;;8.63;69.83
34235;BME280;20500;49.856;20.290;2024-03-25T13:44:31;97792.23;;;8.51;69.95
34235;BME280;20500;49.856;20.290;2024-03-25T13:47:37;97795.01;;;8.55;70.47
34235;BME280;20500;49.856;20.290;2024-03-25T13:50:43;97799.36;;;8.75;70.52
34235;BME280;20500;49.856;20.290;2024-03-25T13:53:49;97796.20;;;8.95;70.52
34235;BME280;20500;49.856;20.290;2024-03-25T13:56:55;97806.01;;;9.05;70.08
34235;BME280;20500;49.856;20.290;2024-03-25T14:00:00;97804.20;;;9.14;70.00
34235;BME280;20500;49.856;20.290;2024-03-25T14:03:10;97806.81;;;9.21;69.87
34235;BME280;20500;49.856;20.290;2024-03-25T14:06:15;97804.83;;;9.24;69.79
34235;BME280;20500;49.856;20.290;2024-03-25T14:09:28;97804.39;;;9.33;69.85
34235;BME280;20500;49.856;20.290;2024-03-25T14:12:33;97804.30;;;9.31;69.60
34235;BME280;20500;49.856;20.290;2024-03-25T14:15:39;97805.22;;;9.33;69.67
34235;BME280;20500;49.856;20.290;2024-03-25T14:18:44;97811.29;;;9.34;69.30
34235;BME280;20500;49.856;20.290;2024-03-25T14:21:51;97809.56;;;9.29;69.34
34235;BME280;20500;49.856;20.290;2024-03-25T14:24:56;97812.27;;;9.31;69.56
34235;BME280;20500;49.856;20.290;2024-03-25T14:28:02;97812.30;;;9.39;69.54
34235;BME280;20500;49.856;20.290;2024-03-25T14:31:07;97814.80;;;9.44;69.34
34235;BME280;20500;49.856;20.290;2024-03-25T14:34:12;97825.29;;;9.43;69.06
34235;BME280;20500;49.856;20.290;2024-03-25T14:37:17;97832.55;;;9.24;68.65
34235;BME280;20500;49.856;20.290;2024-03-25T14:40:24;97828.35;;;9.04;68.56
34235;BME280;20500;49.856;20.290;2024-03-25T14:43:30;97832.73;;;8.95;68.57
34235;BME280;20500;49.856;20.290;2024-03-25T14:46:35;97833.23;;;8.94;68.85
34235;BME280;20500;49.856;20.290;2024-03-25T14:49:41;97828.80;;;8.91;68.76
34235;BME280;20500;49.856;20.290;2024-03-25T14:52:46;97823.50;;;8.86;68.60
34235;BME280;20500;49.856;20.290;2024-03-25T14:55:51;97824.66;;;8.75;68.76
34235;BME280;20500;49.856;20.290;2024-03-25T14:58:56;97822.20;;;8.76;68.86
34235;BME280;20500;49.856;20.290;2024-03-25T15:02:02;97818.48;;;8.84;68.77
34235;BME280;20500;49.856;20.290;2024-03-25T15:05:09;97824.73;;;9.01;68.86
34235;BME280;20500;49.856;20.290;2024-03-25T15:08:14;97826.30;;;9.14;68.69
34235;BME280;20500;49.856;20.290;2024-03-25T15:11:19;97828.98;;;9.20;68.50
34235;BME280;20500;49.856;20.290;2024-03-25T15:14:29;97830.17;;;9.13;68.18
34235;BME280;20500;49.856;20.290;2024-03-25T15:17:34;97836.80;;;8.96;68.06
34235;BME280;20500;49.856;20.290;2024-03-25T15:20:39;97839.13;;;8.87;68.22
34235;BME280;20500;49.856;20.290;2024-03-25T15:23:45;97836.00;;;8.80;68.12
34235;BME280;20500;49.856;20.290;2024-03-25T15:26:50;97835.08;;;8.72;67.91
34235;BME280;20500;49.856;20.290;2024-03-25T15:29:55;97841.96;;;8.62;67.88
34235;BME280;20500;49.856;20.290;2024-03-25T15:33:00;97843.91;;;8.54;67.95
34235;BME280;20500;49.856;20.290;2024-03-25T15:36:07;97846.95;;;8.49;67.88
34235;BME280;20500;49.856;20.290;2024-03-25T15:39:12;97848.34;;;8.44;67.72
34235;BME280;20500;49.856;20.290;2024-03-25T15:42:18;97843.42;;;8.34;67.89
34235;BME280;20500;49.856;20.290;2024-03-25T15:45:23;97841.36;;;8.25;68.02
34235;BME280;20500;49.856;20.290;2024-03-25T15:48:29;97837.63;;;8.19;68.07
34235;BME280;20500;49.856;20.290;2024-03-25T15:51:34;97837.08;;;8.17;68.07
34235;BME280;20500;49.856;20.290;2024-03-25T15:54:39;97835.28;;;8.12;68.07
34235;BME280;20500;49.856;20.290;2024-03-25T15:57:44;97837.67;;;8.10;68.22
34235;BME280;20500;49.856;20.290;2024-03-25T16:00:50;97838.28;;;8.11;68.27
34235;BME280;20500;49.856;20.290;2024-03-25T16:03:55;97840.02;;;8.08;68.23
34235;BME280;20500;49.856;20.290;2024-03-25T16:07:02;97847.60;;;8.03;68.33
34235;BME280;20500;49.856;20.290;2024-03-25T16:10:09;97848.91;;;7.95;68.24
34235;BME280;20500;49.856;20.290;2024-03-25T16:13:14;97851.10;;;7.88;68.19
34235;BME280;20500;49.856;20.290;2024-03-25T16:16:19;97850.73;;;7.86;68.19
34235;BME280;20500;49.856;20.290;2024-03-25T16:19:24;97848.64;;;7.85;68.23
34235;BME280;20500;49.856;20.290;2024-03-25T16:22:30;97850.06;;;7.79;68.14
34235;BME280;20500;49.856;20.290;2024-03-25T16:25:36;97854.28;;;7.71;68.30